sensor_id;sensor_type;location;lat;lon;timestamp;P1;durP1;ratioP1;P2;durP2;ratioP2
4766;SDS011;2397;53.576;9.746;2023-02-28T00:00:19;5.83;;;3.50;;
4766;SDS011;2397;53.576;9.746;2023-02-28T00:02:46;4.13;;;3.30;;
4766;SDS011;2397;53.576;9.746;2023-02-28T00:05:14;7.13;;;3.83;;
4766;SDS011;2397;53.576;9.746;2023-02-28T00:07:42;6.67;;;3.67;;
4766;SDS011;2397;53.576;9.746;2023-02-28T00:10:09;5.43;;;3.33;;
4766;SDS011;2397;53.576;9.746;2023-02-28T00:12:38;5.10;;;3.10;;
4766;SDS011;2397;53.576;9.746;2023-02-28T00:15:05;8.50;;;3.67;;
4766;SDS011;2397;53.576;9.746;2023-02-28T00:17:32;6.50;;;3.70;;
4766;SDS011;2397;53.576;9.746;2023-02-28T00:19:59;3.97;;;2.97;;
4766;SDS011;2397;53.576;9.746;2023-02-28T00:22:28;5.63;;;4.00;;
4766;SDS011;2397;53.576;9.746;2023-02-28T00:24:54;5.87;;;3.23;;
4766;SDS011;2397;53.576;9.746;2023-02-28T00:27:21;3.30;;;2.73;;
4766;SDS011;2397;53.576;9.746;2023-02-28T00:29:47;4.20;;;3.37;;
4766;SDS011;2397;53.576;9.746;2023-02-28T00:32:14;3.20;;;2.90;;
4766;SDS011;2397;53.576;9.746;2023-02-28T00:34:40;5.57;;;3.33;;
4766;SDS011;2397;53.576;9.746;2023-02-28T00:37:07;3.70;;;3.40;;
4766;SDS011;2397;53.576;9.746;2023-02-28T00:39:35;7.03;;;2.80;;
4766;SDS011;2397;53.576;9.746;2023-02-28T00:42:03;3.53;;;3.20;;
4766;SDS011;2397;53.576;9.746;2023-02-28T00:44:30;6.57;;;3.53;;
4766;SDS011;2397;53.576;9.746;2023-02-28T00:46:57;4.30;;;3.30;;
4766;SDS011;2397;53.576;9.746;2023-02-28T00:49:24;3.33;;;2.67;;
4766;SDS011;2397;53.576;9.746;2023-02-28T00:51:51;3.63;;;2.73;;
4766;SDS011;2397;53.576;9.746;2023-02-28T00:54:19;5.07;;;3.30;;
4766;SDS011;2397;53.576;9.746;2023-02-28T00:56:46;8.57;;;3.20;;
4766;SDS011;2397;53.576;9.746;2023-02-28T00:59:13;3.83;;;3.43;;
4766;SDS011;2397;53.576;9.746;2023-02-28T01:01:41;3.57;;;2.97;;
4766;SDS011;2397;53.576;9.746;2023-02-28T01:04:09;3.30;;;3.00;;
4766;SDS011;2397;53.576;9.746;2023-02-28T01:06:36;6.20;;;3.43;;
4766;SDS011;2397;53.576;9.746;2023-02-28T01:09:03;4.73;;;3.50;;
4766;SDS011;2397;53.576;9.746;2023-02-28T01:11:31;4.97;;;3.20;;
4766;SDS011;2397;53.576;9.746;2023-02-28T01:13:58;4.00;;;3.40;;
4766;SDS011;2397;53.576;9.746;2023-02-28T01:16:25;3.27;;;2.67;;
4766;SDS011;2397;53.576;9.746;2023-02-28T01:18:52;3.80;;;3.40;;
4766;SDS011;2397;53.576;9.746;2023-02-28T01:21:19;3.20;;;2.90;;
4766;SDS011;2397;53.576;9.746;2023-02-28T01:23:47;5.17;;;3.67;;
4766;SDS011;2397;53.576;9.746;2023-02-28T01:26:15;4.17;;;3.77;;
4766;SDS011;2397;53.576;9.746;2023-02-28T01:28:43;4.30;;;3.07;;
4766;SDS011;2397;53.576;9.746;2023-02-28T01:31:09;7.30;;;2.90;;
4766;SDS011;2397;53.576;9.746;2023-02-28T01:33:36;4.40;;;3.50;;
4766;SDS011;2397;53.576;9.746;2023-02-28T01:36:05;3.97;;;3.57;;
4766;SDS011;2397;53.576;9.746;2023-02-28T01:38:35;4.90;;;3.47;;
4766;SDS011;2397;53.576;9.746;2023-02-28T01:41:02;7.50;;;3.63;;
4766;SDS011;2397;53.576;9.746;2023-02-28T01:43:30;4.63;;;3.90;;
4766;SDS011;2397;53.576;9.746;2023-02-28T01:45:58;8.57;;;5.67;;
4766;SDS011;2397;53.576;9.746;2023-02-28T01:48:26;11.20;;;5.53;;
4766;SDS011;2397;53.576;9.746;2023-02-28T01:50:56;7.40;;;5.37;;
4766;SDS011;2397;53.576;9.746;2023-02-28T01:53:32;10.87;;;5.77;;
4766;SDS011;2397;53.576;9.746;2023-02-28T01:56:03;6.33;;;4.97;;
4766;SDS011;2397;53.576;9.746;2023-02-28T01:58:33;9.00;;;5.80;;
4766;SDS011;2397;53.576;9.746;2023-02-28T02:01:01;8.77;;;6.10;;
4766;SDS011;2397;53.576;9.746;2023-02-28T02:03:29;8.73;;;6.30;;
4766;SDS011;2397;53.576;9.746;2023-02-28T02:05:57;10.93;;;6.80;;
4766;SDS011;2397;53.576;9.746;2023-02-28T02:08:24;9.50;;;6.20;;
4766;SDS011;2397;53.576;9.746;2023-02-28T02:10:54;8.40;;;5.77;;
4766;SDS011;2397;53.576;9.746;2023-02-28T02:13:34;8.90;;;5.67;;
4766;SDS011;2397;53.576;9.746;2023-02-28T02:16:20;6.03;;;4.43;;
4766;SDS011;2397;53.576;9.746;2023-02-28T02:18:56;6.23;;;4.80;;
4766;SDS011;2397;53.576;9.746;2023-02-28T02:24:26;5.57;;;3.40;;
4766;SDS011;2397;53.576;9.746;2023-02-28T02:32:40;2.87;;;2.50;;
4766;SDS011;2397;53.576;9.746;2023-02-28T02:46:28;2.90;;;2.70;;
4766;SDS011;2397;53.576;9.746;2023-02-28T02:48:59;4.50;;;2.87;;
4766;SDS011;2397;53.576;9.746;2023-02-28T02:51:29;3.33;;;3.03;;
4766;SDS011;2397;53.576;9.746;2023-02-28T02:54:05;4.43;;;2.77;;
4766;SDS011;2397;53.576;9.746;2023-02-28T02:56:36;4.93;;;2.57;;
4766;SDS011;2397;53.576;9.746;2023-02-28T02:59:08;3.67;;;2.73;;
4766;SDS011;2397;53.576;9.746;2023-02-28T03:01:37;5.23;;;3.13;;
4766;SDS011;2397;53.576;9.746;2023-02-28T03:04:08;2.97;;;2.40;;
4766;SDS011;2397;53.576;9.746;2023-02-28T03:06:37;3.13;;;2.77;;
4766;SDS011;2397;53.576;9.746;2023-02-28T03:09:04;2.53;;;2.30;;
4766;SDS011;2397;53.576;9.746;2023-02-28T03:11:30;3.33;;;2.00;;
4766;SDS011;2397;53.576;9.746;2023-02-28T03:17:00;6.60;;;2.97;;
4766;SDS011;2397;53.576;9.746;2023-02-28T03:19:51;3.90;;;2.70;;
4766;SDS011;2397;53.576;9.746;2023-02-28T03:22:59;3.40;;;3.10;;
4766;SDS011;2397;53.576;9.746;2023-02-28T03:25:37;2.93;;;2.73;;
4766;SDS011;2397;53.576;9.746;2023-02-28T03:31:10;3.30;;;2.30;;
4766;SDS011;2397;53.576;9.746;2023-02-28T03:33:46;4.37;;;2.70;;
4766;SDS011;2397;53.576;9.746;2023-02-28T03:36:25;6.10;;;2.57;;
4766;SDS011;2397;53.576;9.746;2023-02-28T03:41:30;3.73;;;2.67;;
4766;SDS011;2397;53.576;9.746;2023-02-28T03:44:22;3.50;;;2.17;;
4766;SDS011;2397;53.576;9.746;2023-02-28T03:46:57;2.63;;;2.43;;
4766;SDS011;2397;53.576;9.746;2023-02-28T03:49:53;11.77;;;2.83;;
4766;SDS011;2397;53.576;9.746;2023-02-28T03:52:22;5.10;;;2.30;;
4766;SDS011;2397;53.576;9.746;2023-02-28T03:54:54;3.50;;;2.60;;
4766;SDS011;2397;53.576;9.746;2023-02-28T03:57:32;3.70;;;2.43;;
4766;SDS011;2397;53.576;9.746;2023-02-28T04:00:33;3.20;;;2.30;;
4766;SDS011;2397;53.576;9.746;2023-02-28T04:03:03;2.83;;;2.53;;
4766;SDS011;2397;53.576;9.746;2023-02-28T04:05:30;4.20;;;3.00;;
4766;SDS011;2397;53.576;9.746;2023-02-28T04:08:04;2.67;;;2.30;;
4766;SDS011;2397;53.576;9.746;2023-02-28T04:10:32;2.90;;;2.70;;
4766;SDS011;2397;53.576;9.746;2023-02-28T04:12:58;2.53;;;2.30;;
4766;SDS011;2397;53.576;9.746;2023-02-28T04:15:25;3.97;;;2.40;;
4766;SDS011;2397;53.576;9.746;2023-02-28T04:17:53;2.50;;;2.30;;
4766;SDS011;2397;53.576;9.746;2023-02-28T04:20:19;4.27;;;2.17;;
4766;SDS011;2397;53.576;9.746;2023-02-28T04:22:46;3.87;;;2.67;;
4766;SDS011;2397;53.576;9.746;2023-02-28T04:25:12;5.17;;;3.10;;
4766;SDS011;2397;53.576;9.746;2023-02-28T04:27:38;7.57;;;3.13;;
4766;SDS011;2397;53.576;9.746;2023-02-28T04:30:05;5.60;;;3.03;;
4766;SDS011;2397;53.576;9.746;2023-02-28T04:32:32;4.37;;;3.40;;
4766;SDS011;2397;53.576;9.746;2023-02-28T04:34:59;8.47;;;3.60;;
4766;SDS011;2397;53.576;9.746;2023-02-28T04:37:25;4.50;;;3.30;;
4766;SDS011;2397;53.576;9.746;2023-02-28T04:39:54;6.50;;;4.07;;
4766;SDS011;2397;53.576;9.746;2023-02-28T04:42:21;6.43;;;3.90;;
4766;SDS011;2397;53.576;9.746;2023-02-28T04:44:47;3.10;;;2.80;;
4766;SDS011;2397;53.576;9.746;2023-02-28T04:47:13;5.80;;;3.13;;
4766;SDS011;2397;53.576;9.746;2023-02-28T04:49:40;4.77;;;3.37;;
4766;SDS011;2397;53.576;9.746;2023-02-28T04:52:07;8.60;;;3.47;;
4766;SDS011;2397;53.576;9.746;2023-02-28T04:54:34;5.73;;;3.80;;
4766;SDS011;2397;53.576;9.746;2023-02-28T04:57:00;3.27;;;3.00;;
4766;SDS011;2397;53.576;9.746;2023-02-28T04:59:27;5.77;;;4.10;;
4766;SDS011;2397;53.576;9.746;2023-02-28T05:01:54;3.63;;;3.33;;
4766;SDS011;2397;53.576;9.746;2023-02-28T05:04:20;12.23;;;3.33;;
4766;SDS011;2397;53.576;9.746;2023-02-28T05:06:46;4.57;;;3.30;;
4766;SDS011;2397;53.576;9.746;2023-02-28T05:09:13;3.90;;;3.40;;
4766;SDS011;2397;53.576;9.746;2023-02-28T05:11:39;5.90;;;3.30;;
4766;SDS011;2397;53.576;9.746;2023-02-28T05:14:09;4.97;;;3.20;;
4766;SDS011;2397;53.576;9.746;2023-02-28T05:16:38;4.83;;;3.30;;
4766;SDS011;2397;53.576;9.746;2023-02-28T05:19:05;3.97;;;3.40;;
4766;SDS011;2397;53.576;9.746;2023-02-28T05:21:33;6.63;;;3.40;;
4766;SDS011;2397;53.576;9.746;2023-02-28T05:24:01;4.27;;;3.37;;
4766;SDS011;2397;53.576;9.746;2023-02-28T05:26:29;5.80;;;3.90;;
4766;SDS011;2397;53.576;9.746;2023-02-28T05:28:56;5.30;;;3.57;;
4766;SDS011;2397;53.576;9.746;2023-02-28T05:31:23;5.37;;;3.83;;
4766;SDS011;2397;53.576;9.746;2023-02-28T05:33:50;4.60;;;3.50;;
4766;SDS011;2397;53.576;9.746;2023-02-28T05:36:17;5.03;;;3.73;;
4766;SDS011;2397;53.576;9.746;2023-02-28T05:38:45;5.03;;;3.37;;
4766;SDS011;2397;53.576;9.746;2023-02-28T05:41:15;3.80;;;3.20;;
4766;SDS011;2397;53.576;9.746;2023-02-28T05:43:42;3.87;;;3.53;;
4766;SDS011;2397;53.576;9.746;2023-02-28T05:46:09;5.10;;;3.83;;
4766;SDS011;2397;53.576;9.746;2023-02-28T05:48:37;5.13;;;4.10;;
4766;SDS011;2397;53.576;9.746;2023-02-28T05:51:05;5.07;;;3.83;;
4766;SDS011;2397;53.576;9.746;2023-02-28T05:53:33;7.90;;;4.10;;
4766;SDS011;2397;53.576;9.746;2023-02-28T05:55:59;4.70;;;3.40;;
4766;SDS011;2397;53.576;9.746;2023-02-28T05:58:26;5.03;;;3.17;;
4766;SDS011;2397;53.576;9.746;2023-02-28T06:00:57;4.57;;;3.27;;
4766;SDS011;2397;53.576;9.746;2023-02-28T06:03:24;10.20;;;3.80;;
4766;SDS011;2397;53.576;9.746;2023-02-28T06:05:51;5.80;;;4.23;;
4766;SDS011;2397;53.576;9.746;2023-02-28T06:08:17;6.03;;;3.47;;
4766;SDS011;2397;53.576;9.746;2023-02-28T06:10:45;6.07;;;4.10;;
4766;SDS011;2397;53.576;9.746;2023-02-28T06:13:11;4.30;;;3.90;;
4766;SDS011;2397;53.576;9.746;2023-02-28T06:15:38;3.50;;;3.20;;
4766;SDS011;2397;53.576;9.746;2023-02-28T06:18:05;4.70;;;3.50;;
4766;SDS011;2397;53.576;9.746;2023-02-28T06:20:31;6.60;;;3.93;;
4766;SDS011;2397;53.576;9.746;2023-02-28T06:22:58;3.73;;;3.30;;
4766;SDS011;2397;53.576;9.746;2023-02-28T06:25:26;8.63;;;3.73;;
4766;SDS011;2397;53.576;9.746;2023-02-28T06:27:53;5.53;;;3.87;;
4766;SDS011;2397;53.576;9.746;2023-02-28T06:30:21;7.37;;;3.67;;
4766;SDS011;2397;53.576;9.746;2023-02-28T06:32:51;5.63;;;3.40;;
4766;SDS011;2397;53.576;9.746;2023-02-28T06:35:18;9.40;;;3.83;;
4766;SDS011;2397;53.576;9.746;2023-02-28T06:37:44;5.93;;;3.40;;
4766;SDS011;2397;53.576;9.746;2023-02-28T06:40:11;8.50;;;3.80;;
4766;SDS011;2397;53.576;9.746;2023-02-28T06:42:39;7.00;;;4.03;;
4766;SDS011;2397;53.576;9.746;2023-02-28T06:45:06;6.20;;;3.70;;
4766;SDS011;2397;53.576;9.746;2023-02-28T06:47:36;4.77;;;3.90;;
4766;SDS011;2397;53.576;9.746;2023-02-28T06:50:04;5.77;;;4.00;;
4766;SDS011;2397;53.576;9.746;2023-02-28T06:52:31;9.30;;;4.10;;
4766;SDS011;2397;53.576;9.746;2023-02-28T06:54:58;5.93;;;3.57;;
4766;SDS011;2397;53.576;9.746;2023-02-28T06:57:27;6.40;;;3.50;;
4766;SDS011;2397;53.576;9.746;2023-02-28T06:59:58;4.07;;;3.13;;
4766;SDS011;2397;53.576;9.746;2023-02-28T07:02:25;9.93;;;3.63;;
4766;SDS011;2397;53.576;9.746;2023-02-28T07:04:52;3.93;;;3.53;;
4766;SDS011;2397;53.576;9.746;2023-02-28T07:07:19;4.20;;;3.80;;
4766;SDS011;2397;53.576;9.746;2023-02-28T07:09:45;4.43;;;3.00;;
4766;SDS011;2397;53.576;9.746;2023-02-28T07:12:12;6.00;;;3.73;;
4766;SDS011;2397;53.576;9.746;2023-02-28T07:14:38;4.40;;;3.70;;
4766;SDS011;2397;53.576;9.746;2023-02-28T07:17:06;5.90;;;3.60;;
4766;SDS011;2397;53.576;9.746;2023-02-28T07:19:33;3.70;;;3.30;;
4766;SDS011;2397;53.576;9.746;2023-02-28T07:22:00;8.30;;;3.70;;
4766;SDS011;2397;53.576;9.746;2023-02-28T07:24:27;5.27;;;3.30;;
4766;SDS011;2397;53.576;9.746;2023-02-28T07:26:54;4.47;;;3.30;;
4766;SDS011;2397;53.576;9.746;2023-02-28T07:29:21;9.80;;;3.50;;
4766;SDS011;2397;53.576;9.746;2023-02-28T07:31:47;5.53;;;3.53;;
4766;SDS011;2397;53.576;9.746;2023-02-28T07:34:16;6.70;;;3.43;;
4766;SDS011;2397;53.576;9.746;2023-02-28T07:36:42;5.17;;;3.83;;
4766;SDS011;2397;53.576;9.746;2023-02-28T07:39:09;5.13;;;3.60;;
4766;SDS011;2397;53.576;9.746;2023-02-28T07:41:36;4.27;;;3.23;;
4766;SDS011;2397;53.576;9.746;2023-02-28T07:44:09;3.07;;;2.77;;
4766;SDS011;2397;53.576;9.746;2023-02-28T07:46:38;4.00;;;2.87;;
4766;SDS011;2397;53.576;9.746;2023-02-28T07:49:05;4.13;;;3.30;;
4766;SDS011;2397;53.576;9.746;2023-02-28T07:51:32;3.80;;;2.73;;
4766;SDS011;2397;53.576;9.746;2023-02-28T07:53:59;3.33;;;2.80;;
4766;SDS011;2397;53.576;9.746;2023-02-28T07:56:25;2.90;;;2.70;;
4766;SDS011;2397;53.576;9.746;2023-02-28T07:58:52;8.20;;;3.07;;
4766;SDS011;2397;53.576;9.746;2023-02-28T08:01:19;4.33;;;2.83;;
4766;SDS011;2397;53.576;9.746;2023-02-28T08:03:45;3.13;;;2.67;;
4766;SDS011;2397;53.576;9.746;2023-02-28T08:06:16;3.00;;;2.27;;
4766;SDS011;2397;53.576;9.746;2023-02-28T08:08:47;2.80;;;2.00;;
4766;SDS011;2397;53.576;9.746;2023-02-28T08:11:15;3.00;;;2.60;;
4766;SDS011;2397;53.576;9.746;2023-02-28T08:13:43;2.90;;;2.60;;
4766;SDS011;2397;53.576;9.746;2023-02-28T08:16:10;2.73;;;2.53;;
4766;SDS011;2397;53.576;9.746;2023-02-28T08:18:40;2.80;;;2.50;;
4766;SDS011;2397;53.576;9.746;2023-02-28T08:21:07;3.50;;;2.67;;
4766;SDS011;2397;53.576;9.746;2023-02-28T08:23:34;3.40;;;3.10;;
4766;SDS011;2397;53.576;9.746;2023-02-28T08:26:01;3.60;;;3.17;;
4766;SDS011;2397;53.576;9.746;2023-02-28T08:28:28;3.60;;;3.30;;
4766;SDS011;2397;53.576;9.746;2023-02-28T08:30:55;4.47;;;3.13;;
4766;SDS011;2397;53.576;9.746;2023-02-28T08:33:21;6.17;;;3.07;;
4766;SDS011;2397;53.576;9.746;2023-02-28T08:35:51;6.50;;;2.63;;
4766;SDS011;2397;53.576;9.746;2023-02-28T08:38:18;4.40;;;3.00;;
4766;SDS011;2397;53.576;9.746;2023-02-28T08:40:45;4.90;;;2.63;;
4766;SDS011;2397;53.576;9.746;2023-02-28T08:43:11;2.77;;;2.40;;
4766;SDS011;2397;53.576;9.746;2023-02-28T08:45:38;3.73;;;2.90;;
4766;SDS011;2397;53.576;9.746;2023-02-28T08:48:04;4.00;;;2.50;;
4766;SDS011;2397;53.576;9.746;2023-02-28T08:50:31;4.43;;;3.07;;
4766;SDS011;2397;53.576;9.746;2023-02-28T08:52:57;3.87;;;2.73;;
4766;SDS011;2397;53.576;9.746;2023-02-28T08:55:24;4.00;;;3.07;;
4766;SDS011;2397;53.576;9.746;2023-02-28T08:57:51;3.60;;;2.93;;
4766;SDS011;2397;53.576;9.746;2023-02-28T09:00:18;2.80;;;2.60;;
4766;SDS011;2397;53.576;9.746;2023-02-28T09:02:45;6.43;;;2.60;;
4766;SDS011;2397;53.576;9.746;2023-02-28T09:05:11;5.00;;;3.00;;
4766;SDS011;2397;53.576;9.746;2023-02-28T09:07:37;4.17;;;2.87;;
4766;SDS011;2397;53.576;9.746;2023-02-28T09:10:04;2.70;;;2.50;;
4766;SDS011;2397;53.576;9.746;2023-02-28T09:12:32;4.00;;;3.00;;
4766;SDS011;2397;53.576;9.746;2023-02-28T09:15:00;3.03;;;2.47;;
4766;SDS011;2397;53.576;9.746;2023-02-28T09:17:27;4.00;;;2.60;;
4766;SDS011;2397;53.576;9.746;2023-02-28T09:19:56;3.47;;;2.50;;
4766;SDS011;2397;53.576;9.746;2023-02-28T09:22:23;6.70;;;3.27;;
4766;SDS011;2397;53.576;9.746;2023-02-28T09:24:49;4.70;;;2.60;;
4766;SDS011;2397;53.576;9.746;2023-02-28T09:27:16;3.10;;;2.27;;
4766;SDS011;2397;53.576;9.746;2023-02-28T09:29:42;2.50;;;2.30;;
4766;SDS011;2397;53.576;9.746;2023-02-28T09:32:09;2.63;;;2.43;;
4766;SDS011;2397;53.576;9.746;2023-02-28T09:34:35;5.20;;;2.00;;
4766;SDS011;2397;53.576;9.746;2023-02-28T09:37:03;2.13;;;2.00;;
4766;SDS011;2397;53.576;9.746;2023-02-28T09:39:29;3.50;;;2.77;;
4766;SDS011;2397;53.576;9.746;2023-02-28T09:41:56;2.73;;;2.53;;
4766;SDS011;2397;53.576;9.746;2023-02-28T09:47:00;2.60;;;2.40;;
4766;SDS011;2397;53.576;9.746;2023-02-28T09:49:37;4.27;;;2.30;;
4766;SDS011;2397;53.576;9.746;2023-02-28T09:52:17;2.53;;;2.20;;
4766;SDS011;2397;53.576;9.746;2023-02-28T09:54:45;2.40;;;2.20;;
4766;SDS011;2397;53.576;9.746;2023-02-28T09:57:32;2.93;;;2.10;;
4766;SDS011;2397;53.576;9.746;2023-02-28T10:00:07;2.40;;;1.90;;
4766;SDS011;2397;53.576;9.746;2023-02-28T10:05:41;2.17;;;1.97;;
4766;SDS011;2397;53.576;9.746;2023-02-28T10:08:21;3.70;;;1.80;;
4766;SDS011;2397;53.576;9.746;2023-02-28T10:10:56;1.67;;;1.57;;
4766;SDS011;2397;53.576;9.746;2023-02-28T10:13:35;3.50;;;1.77;;
4766;SDS011;2397;53.576;9.746;2023-02-28T10:16:06;5.60;;;2.07;;
4766;SDS011;2397;53.576;9.746;2023-02-28T10:18:46;2.97;;;2.00;;
4766;SDS011;2397;53.576;9.746;2023-02-28T10:21:18;1.70;;;1.60;;
4766;SDS011;2397;53.576;9.746;2023-02-28T10:23:49;2.53;;;1.80;;
4766;SDS011;2397;53.576;9.746;2023-02-28T10:26:25;2.60;;;1.70;;
4766;SDS011;2397;53.576;9.746;2023-02-28T10:28:55;1.70;;;1.60;;
4766;SDS011;2397;53.576;9.746;2023-02-28T10:31:21;1.87;;;1.77;;
4766;SDS011;2397;53.576;9.746;2023-02-28T10:33:50;1.20;;;1.10;;
4766;SDS011;2397;53.576;9.746;2023-02-28T10:36:19;1.97;;;1.70;;
4766;SDS011;2397;53.576;9.746;2023-02-28T10:38:47;2.10;;;1.90;;
4766;SDS011;2397;53.576;9.746;2023-02-28T10:41:15;2.60;;;1.90;;
4766;SDS011;2397;53.576;9.746;2023-02-28T10:43:53;3.03;;;2.10;;
4766;SDS011;2397;53.576;9.746;2023-02-28T10:46:48;3.43;;;2.27;;
4766;SDS011;2397;53.576;9.746;2023-02-28T10:51:56;3.20;;;2.60;;
4766;SDS011;2397;53.576;9.746;2023-02-28T10:54:32;3.67;;;2.73;;
4766;SDS011;2397;53.576;9.746;2023-02-28T10:57:23;3.80;;;2.40;;
4766;SDS011;2397;53.576;9.746;2023-02-28T11:00:06;7.53;;;3.23;;
4766;SDS011;2397;53.576;9.746;2023-02-28T11:02:45;4.17;;;3.10;;
4766;SDS011;2397;53.576;9.746;2023-02-28T11:05:32;3.50;;;2.80;;
4766;SDS011;2397;53.576;9.746;2023-02-28T11:08:06;3.23;;;2.40;;
4766;SDS011;2397;53.576;9.746;2023-02-28T11:10:43;2.80;;;2.60;;
4766;SDS011;2397;53.576;9.746;2023-02-28T11:13:19;2.37;;;2.17;;
4766;SDS011;2397;53.576;9.746;2023-02-28T11:15:50;2.37;;;2.17;;
4766;SDS011;2397;53.576;9.746;2023-02-28T11:24:21;2.40;;;2.20;;
4766;SDS011;2397;53.576;9.746;2023-02-28T11:26:52;2.37;;;1.90;;
4766;SDS011;2397;53.576;9.746;2023-02-28T11:29:20;2.57;;;2.00;;
4766;SDS011;2397;53.576;9.746;2023-02-28T11:34:32;2.13;;;1.90;;
4766;SDS011;2397;53.576;9.746;2023-02-28T11:36:59;2.10;;;2.00;;
4766;SDS011;2397;53.576;9.746;2023-02-28T11:39:26;2.60;;;1.90;;
4766;SDS011;2397;53.576;9.746;2023-02-28T11:42:06;1.87;;;1.77;;
4766;SDS011;2397;53.576;9.746;2023-02-28T11:45:05;2.17;;;1.80;;
4766;SDS011;2397;53.576;9.746;2023-02-28T11:53:49;1.77;;;1.67;;
4766;SDS011;2397;53.576;9.746;2023-02-28T11:56:22;1.60;;;1.50;;
4766;SDS011;2397;53.576;9.746;2023-02-28T12:02:26;2.57;;;2.10;;
4766;SDS011;2397;53.576;9.746;2023-02-28T12:07:48;1.90;;;1.70;;
4766;SDS011;2397;53.576;9.746;2023-02-28T12:10:33;1.90;;;1.70;;
4766;SDS011;2397;53.576;9.746;2023-02-28T12:13:13;1.77;;;1.67;;
4766;SDS011;2397;53.576;9.746;2023-02-28T12:15:50;1.80;;;1.70;;
4766;SDS011;2397;53.576;9.746;2023-02-28T12:21:15;3.80;;;2.20;;
4766;SDS011;2397;53.576;9.746;2023-02-28T12:23:56;2.43;;;2.20;;
4766;SDS011;2397;53.576;9.746;2023-02-28T12:29:10;1.70;;;1.60;;
4766;SDS011;2397;53.576;9.746;2023-02-28T12:31:45;2.83;;;2.00;;
4766;SDS011;2397;53.576;9.746;2023-02-28T12:34:19;1.70;;;1.60;;
4766;SDS011;2397;53.576;9.746;2023-02-28T12:36:49;1.80;;;1.70;;
4766;SDS011;2397;53.576;9.746;2023-02-28T12:39:29;2.23;;;2.03;;
4766;SDS011;2397;53.576;9.746;2023-02-28T12:42:24;3.07;;;2.17;;
4766;SDS011;2397;53.576;9.746;2023-02-28T12:45:02;3.63;;;1.70;;
4766;SDS011;2397;53.576;9.746;2023-02-28T12:47:36;2.33;;;1.90;;
4766;SDS011;2397;53.576;9.746;2023-02-28T12:50:07;7.60;;;2.20;;
4766;SDS011;2397;53.576;9.746;2023-02-28T12:58:08;2.90;;;2.10;;
4766;SDS011;2397;53.576;9.746;2023-02-28T13:00:58;2.43;;;2.20;;
4766;SDS011;2397;53.576;9.746;2023-02-28T13:04:00;1.73;;;1.63;;
4766;SDS011;2397;53.576;9.746;2023-02-28T13:06:43;2.13;;;1.90;;
4766;SDS011;2397;53.576;9.746;2023-02-28T13:09:12;2.00;;;1.70;;
4766;SDS011;2397;53.576;9.746;2023-02-28T13:11:48;3.10;;;1.53;;
4766;SDS011;2397;53.576;9.746;2023-02-28T13:16:48;2.70;;;1.90;;
4766;SDS011;2397;53.576;9.746;2023-02-28T13:19:20;1.90;;;1.67;;
4766;SDS011;2397;53.576;9.746;2023-02-28T13:21:49;2.10;;;1.90;;
4766;SDS011;2397;53.576;9.746;2023-02-28T13:24:37;3.00;;;2.30;;
4766;SDS011;2397;53.576;9.746;2023-02-28T13:29:39;2.30;;;2.10;;
4766;SDS011;2397;53.576;9.746;2023-02-28T13:34:39;3.40;;;1.90;;
4766;SDS011;2397;53.576;9.746;2023-02-28T13:39:47;3.30;;;2.00;;
4766;SDS011;2397;53.576;9.746;2023-02-28T13:50:29;3.13;;;2.30;;
4766;SDS011;2397;53.576;9.746;2023-02-28T13:55:51;2.23;;;1.70;;
4766;SDS011;2397;53.576;9.746;2023-02-28T13:58:33;2.70;;;2.00;;
4766;SDS011;2397;53.576;9.746;2023-02-28T14:01:11;2.37;;;2.17;;
4766;SDS011;2397;53.576;9.746;2023-02-28T14:06:31;7.37;;;2.23;;
4766;SDS011;2397;53.576;9.746;2023-02-28T14:09:00;2.47;;;2.27;;
4766;SDS011;2397;53.576;9.746;2023-02-28T14:11:46;3.90;;;3.37;;
4766;SDS011;2397;53.576;9.746;2023-02-28T14:17:04;3.97;;;2.50;;
4766;SDS011;2397;53.576;9.746;2023-02-28T14:19:34;4.40;;;2.10;;
4766;SDS011;2397;53.576;9.746;2023-02-28T14:25:16;2.37;;;2.17;;
4766;SDS011;2397;53.576;9.746;2023-02-28T14:33:59;5.23;;;2.10;;
4766;SDS011;2397;53.576;9.746;2023-02-28T14:36:40;5.83;;;2.60;;
4766;SDS011;2397;53.576;9.746;2023-02-28T14:42:02;2.20;;;2.07;;
4766;SDS011;2397;53.576;9.746;2023-02-28T14:44:31;3.57;;;1.80;;
4766;SDS011;2397;53.576;9.746;2023-02-28T14:47:01;2.30;;;2.10;;
4766;SDS011;2397;53.576;9.746;2023-02-28T14:49:41;2.23;;;2.03;;
4766;SDS011;2397;53.576;9.746;2023-02-28T14:52:15;2.10;;;1.90;;
4766;SDS011;2397;53.576;9.746;2023-02-28T14:54:46;1.93;;;1.83;;
4766;SDS011;2397;53.576;9.746;2023-02-28T14:57:22;2.63;;;2.10;;
4766;SDS011;2397;53.576;9.746;2023-02-28T14:59:58;2.17;;;2.00;;
4766;SDS011;2397;53.576;9.746;2023-02-28T15:02:38;2.93;;;2.50;;
4766;SDS011;2397;53.576;9.746;2023-02-28T15:07:38;3.13;;;2.30;;
4766;SDS011;2397;53.576;9.746;2023-02-28T15:10:22;2.60;;;2.27;;
4766;SDS011;2397;53.576;9.746;2023-02-28T15:12:54;2.80;;;2.00;;
4766;SDS011;2397;53.576;9.746;2023-02-28T15:15:27;4.83;;;2.30;;
4766;SDS011;2397;53.576;9.746;2023-02-28T15:18:42;2.57;;;2.37;;
4766;SDS011;2397;53.576;9.746;2023-02-28T15:21:16;3.07;;;2.00;;
4766;SDS011;2397;53.576;9.746;2023-02-28T15:23:46;4.63;;;2.30;;
4766;SDS011;2397;53.576;9.746;2023-02-28T15:26:18;2.90;;;2.20;;
4766;SDS011;2397;53.576;9.746;2023-02-28T15:29:01;4.53;;;2.23;;
4766;SDS011;2397;53.576;9.746;2023-02-28T15:31:32;2.20;;;1.83;;
4766;SDS011;2397;53.576;9.746;2023-02-28T15:34:22;2.90;;;1.90;;
4766;SDS011;2397;53.576;9.746;2023-02-28T15:37:27;2.03;;;1.93;;
4766;SDS011;2397;53.576;9.746;2023-02-28T15:40:05;2.83;;;2.13;;
4766;SDS011;2397;53.576;9.746;2023-02-28T15:42:38;8.80;;;2.37;;
4766;SDS011;2397;53.576;9.746;2023-02-28T15:45:04;2.93;;;2.20;;
4766;SDS011;2397;53.576;9.746;2023-02-28T15:47:31;6.00;;;1.90;;
4766;SDS011;2397;53.576;9.746;2023-02-28T15:50:00;3.73;;;2.20;;
4766;SDS011;2397;53.576;9.746;2023-02-28T15:52:37;2.07;;;1.80;;
4766;SDS011;2397;53.576;9.746;2023-02-28T15:57:38;2.00;;;1.80;;
4766;SDS011;2397;53.576;9.746;2023-02-28T16:00:09;3.40;;;2.10;;
4766;SDS011;2397;53.576;9.746;2023-02-28T16:02:38;2.53;;;2.10;;
4766;SDS011;2397;53.576;9.746;2023-02-28T16:07:32;2.63;;;2.00;;
4766;SDS011;2397;53.576;9.746;2023-02-28T16:09:59;2.60;;;2.27;;
4766;SDS011;2397;53.576;9.746;2023-02-28T16:12:30;4.93;;;2.07;;
4766;SDS011;2397;53.576;9.746;2023-02-28T16:15:00;3.50;;;2.13;;
4766;SDS011;2397;53.576;9.746;2023-02-28T16:17:33;2.30;;;2.10;;
4766;SDS011;2397;53.576;9.746;2023-02-28T16:20:12;2.60;;;2.40;;
4766;SDS011;2397;53.576;9.746;2023-02-28T16:22:49;2.73;;;2.50;;
4766;SDS011;2397;53.576;9.746;2023-02-28T16:25:17;2.33;;;2.13;;
4766;SDS011;2397;53.576;9.746;2023-02-28T16:27:49;1.90;;;1.80;;
4766;SDS011;2397;53.576;9.746;2023-02-28T16:30:20;2.57;;;2.00;;
4766;SDS011;2397;53.576;9.746;2023-02-28T16:32:50;1.70;;;1.60;;
4766;SDS011;2397;53.576;9.746;2023-02-28T16:35:18;2.37;;;2.17;;
4766;SDS011;2397;53.576;9.746;2023-02-28T16:37:45;2.10;;;1.70;;
4766;SDS011;2397;53.576;9.746;2023-02-28T16:40:15;3.17;;;1.80;;
4766;SDS011;2397;53.576;9.746;2023-02-28T16:42:44;3.30;;;1.93;;
4766;SDS011;2397;53.576;9.746;2023-02-28T16:45:15;3.20;;;1.70;;
4766;SDS011;2397;53.576;9.746;2023-02-28T16:47:45;1.80;;;1.70;;
4766;SDS011;2397;53.576;9.746;2023-02-28T16:50:13;3.13;;;1.73;;
4766;SDS011;2397;53.576;9.746;2023-02-28T16:52:42;4.97;;;2.17;;
4766;SDS011;2397;53.576;9.746;2023-02-28T16:55:09;2.73;;;1.83;;
4766;SDS011;2397;53.576;9.746;2023-02-28T16:57:36;1.73;;;1.63;;
4766;SDS011;2397;53.576;9.746;2023-02-28T17:00:03;2.97;;;1.83;;
4766;SDS011;2397;53.576;9.746;2023-02-28T17:02:31;3.60;;;1.90;;
4766;SDS011;2397;53.576;9.746;2023-02-28T17:04:57;4.43;;;2.40;;
4766;SDS011;2397;53.576;9.746;2023-02-28T17:07:24;3.63;;;2.13;;
4766;SDS011;2397;53.576;9.746;2023-02-28T17:09:50;3.17;;;2.00;;
4766;SDS011;2397;53.576;9.746;2023-02-28T17:12:17;3.07;;;2.23;;
4766;SDS011;2397;53.576;9.746;2023-02-28T17:14:43;4.23;;;2.10;;
4766;SDS011;2397;53.576;9.746;2023-02-28T17:17:13;5.23;;;2.10;;
4766;SDS011;2397;53.576;9.746;2023-02-28T17:19:44;3.00;;;2.00;;
4766;SDS011;2397;53.576;9.746;2023-02-28T17:22:10;2.97;;;1.97;;
4766;SDS011;2397;53.576;9.746;2023-02-28T17:24:36;4.10;;;1.93;;
4766;SDS011;2397;53.576;9.746;2023-02-28T17:27:03;3.77;;;2.13;;
4766;SDS011;2397;53.576;9.746;2023-02-28T17:29:30;3.07;;;2.50;;
4766;SDS011;2397;53.576;9.746;2023-02-28T17:31:56;4.90;;;3.03;;